Time;durP1;ratioP1;P1;durP2;ratioP2;P2;SDS_P1;SDS_P2;PMS_P1;PMS_P2;Temp;Humidity;BMP_temperature;BMP_pressure;BME280_temperature;BME280_humidity;BME280_pressure;Samples;Min_cycle;Max_cycle;Signal;HPM_P1;HPM_P2
2022/08/05 00:01:39;;;;;;;5.95;4.30;;;17.70;99.90;;;;;;5053644;28;20033;-47
2022/08/05 00:04:05;;;;;;;9.13;4.57;;;17.60;99.90;;;;;;5054838;28;20041;-48
2022/08/05 00:06:31;;;;;;;9.27;5.15;;;17.60;99.90;;;;;;5054634;28;20171;-47
2022/08/05 00:08:57;;;;;;;7.85;4.60;;;17.70;99.90;;;;;;5054549;28;20037;-47
2022/08/05 00:11:22;;;;;;;8.20;4.68;;;17.70;99.90;;;;;;5054548;28;20041;-50
2022/08/05 00:13:48;;;;;;;6.82;4.55;;;17.70;99.90;;;;;;5054447;28;20160;-49
2022/08/05 00:16:14;;;;;;;8.65;4.40;;;17.70;99.90;;;;;;5054639;28;20037;-49
2022/08/05 00:18:45;;;;;;;7.63;4.60;;;17.70;99.90;;;;;;5054492;28;20124;-50
2022/08/05 00:21:12;;;;;;;8.00;5.00;;;17.70;99.90;;;;;;5054481;28;20041;-49
2022/08/05 00:23:38;;;;;;;6.83;4.40;;;17.70;99.90;;;;;;5054396;28;20049;-48
2022/08/05 00:26:04;;;;;;;10.98;4.82;;;17.70;99.90;;;;;;5054392;28;20287;-49
2022/08/05 00:28:30;;;;;;;6.22;4.50;;;17.80;99.90;;;;;;5054296;28;20076;-51
2022/08/05 00:30:56;;;;;;;9.27;4.30;;;17.80;99.90;;;;;;5054512;28;20078;-51
2022/08/05 00:33:21;;;;;;;6.38;4.55;;;17.80;99.90;;;;;;5054295;28;20590;-52
2022/08/05 00:35:47;;;;;;;7.55;4.13;;;17.80;99.90;;;;;;5054115;28;20417;-50
2022/08/05 00:38:12;;;;;;;8.20;4.75;;;17.80;99.90;;;;;;5054105;28;20044;-49
2022/08/05 00:43:19;;;;;;;6.55;4.68;;;17.90;99.90;;;;;;5110666;27;20472;-48
2022/08/05 00:45:46;;;;;;;6.45;4.10;;;18.00;99.90;;;;;;5110768;28;20047;-50
2022/08/05 00:48:14;;;;;;;8.30;4.85;;;18.00;99.90;;;;;;5110825;28;20036;-49
2022/08/05 00:50:40;;;;;;;8.80;4.47;;;18.00;99.90;;;;;;5110666;28;20044;-53
2022/08/05 00:53:06;;;;;;;6.28;3.95;;;18.00;99.90;;;;;;5110439;28;20097;-49
2022/08/05 00:55:32;;;;;;;8.02;4.22;;;18.00;99.90;;;;;;5110426;28;20035;-52
2022/08/05 00:57:58;;;;;;;8.68;4.75;;;18.10;99.90;;;;;;5110774;28;20039;-49
2022/08/05 01:00:24;;;;;;;7.05;4.25;;;18.10;99.90;;;;;;5110434;28;20047;-51
2022/08/05 01:02:49;;;;;;;7.10;4.32;;;18.00;99.90;;;;;;5110290;28;20048;-50
2022/08/05 01:05:15;;;;;;;7.53;3.97;;;18.10;99.90;;;;;;5110550;28;20055;-51
2022/08/05 01:07:41;;;;;;;8.70;4.70;;;18.10;99.90;;;;;;5110374;28;20112;-50
2022/08/05 01:10:10;;;;;;;9.30;4.72;;;18.00;99.90;;;;;;5110238;28;20044;-48
2022/08/05 01:12:37;;;;;;;6.07;4.15;;;18.10;99.90;;;;;;5110315;28;20044;-49
2022/08/05 01:15:07;;;;;;;10.52;4.93;;;18.10;99.90;;;;;;5110407;28;20050;-49
2022/08/05 01:17:45;;;;;;;5.95;5.00;;;18.10;99.90;;;;;;5110145;28;20058;-53
2022/08/05 01:20:22;;;;;;;8.65;4.90;;;18.10;99.90;;;;;;5110062;28;20040;-52
2022/08/05 01:23:23;;;;;;;8.43;4.45;;;18.00;99.90;;;;;;5110194;28;20047;-52
2022/08/05 01:26:02;;;;;;;10.15;4.72;;;18.00;99.90;;;;;;5108993;28;20059;-48
2022/08/05 01:28:49;;;;;;;10.25;4.80;;;18.00;99.90;;;;;;5109971;28;20083;-49
2022/08/05 01:31:18;;;;;;;;;;;18.00;99.90;;;;;;5110432;28;20044;-48
2022/08/05 01:33:53;;;;;;;8.82;5.65;;;17.90;99.90;;;;;;5109803;28;19924;-49
2022/08/05 01:36:21;;;;;;;9.10;6.30;;;17.90;99.90;;;;;;5109800;28;20137;-49
2022/08/05 01:38:48;;;;;;;6.93;5.72;;;17.90;99.90;;;;;;5109718;28;20044;-48
2022/08/05 01:41:17;;;;;;;11.87;5.87;;;17.80;99.90;;;;;;5109195;28;20490;-49
2022/08/05 01:43:43;;;;;;;7.05;5.25;;;17.80;99.90;;;;;;5109606;28;20097;-50
2022/08/05 01:46:09;;;;;;;10.95;5.97;;;17.80;99.90;;;;;;5109421;28;20438;-49
2022/08/05 01:48:37;;;;;;;9.23;5.88;;;17.80;99.90;;;;;;5109527;28;20403;-52
2022/08/05 01:51:04;;;;;;;10.38;6.25;;;17.80;99.90;;;;;;5109289;28;20505;-49
2022/08/05 01:53:32;;;;;;;10.63;5.90;;;17.70;99.90;;;;;;5102475;28;20044;-49
2022/08/05 01:56:00;;;;;;;8.98;5.53;;;17.80;99.90;;;;;;5095659;28;20044;-50
2022/08/05 01:58:27;;;;;;;8.80;5.72;;;17.80;99.90;;;;;;5095809;28;20036;-50
2022/08/05 02:00:55;;;;;;;9.57;5.78;;;17.80;99.90;;;;;;5086919;28;20032;-50
2022/08/05 02:03:35;;;;;;;8.40;6.13;;;17.80;99.90;;;;;;5075470;28;20051;-49
2022/08/05 02:06:04;;;;;;;8.23;6.13;;;17.80;99.90;;;;;;5075447;28;20102;-53
2022/08/05 02:08:31;;;;;;;9.52;6.28;;;17.80;99.90;;;;;;5075112;28;20045;-50
2022/08/05 02:11:07;;;;;;;10.30;6.07;;;17.80;99.90;;;;;;5075324;28;20045;-48
2022/08/05 02:14:10;;;;;;;10.57;6.22;;;17.70;99.90;;;;;;5075317;28;20290;-52
2022/08/05 02:16:45;;;;;;;9.43;5.85;;;17.70;99.90;;;;;;5075052;28;20040;-49
2022/08/05 02:19:13;;;;;;;9.48;6.18;;;17.80;99.90;;;;;;5075254;28;20056;-47
2022/08/05 02:21:45;;;;;;;9.05;6.38;;;17.80;99.90;;;;;;5075019;28;20479;-47
2022/08/05 02:24:15;;;;;;;11.02;5.90;;;17.70;99.90;;;;;;5074852;28;20440;-48
2022/08/05 02:26:50;;;;;;;9.57;6.63;;;17.70;99.90;;;;;;5075084;28;20051;-47
2022/08/05 02:29:19;;;;;;;10.43;6.10;;;17.70;99.90;;;;;;5075445;28;20070;-50
2022/08/05 02:31:47;;;;;;;9.88;6.35;;;17.70;99.90;;;;;;5075008;28;20094;-49
2022/08/05 02:34:15;;;;;;;8.82;5.78;;;17.80;99.90;;;;;;5074899;28;20037;-48
2022/08/05 02:36:50;;;;;;;10.48;6.65;;;17.70;99.90;;;;;;5074694;28;20463;-49
2022/08/05 02:39:18;;;;;;;9.95;6.30;;;17.80;99.90;;;;;;5095235;22;20056;-45
2022/08/05 02:41:47;;;;;;;11.98;5.80;;;17.80;99.90;;;;;;5065643;28;20052;-46
2022/08/05 02:44:13;;;;;;;8.80;5.80;;;17.80;99.90;;;;;;5063390;28;20399;-45
2022/08/05 02:46:41;;;;;;;7.70;6.57;;;17.80;99.90;;;;;;5054793;28;20140;-45
2022/08/05 02:49:07;;;;;;;8.95;6.32;;;17.80;99.90;;;;;;5071534;28;20448;-48
2022/08/05 02:51:36;;;;;;;12.23;6.82;;;17.80;99.90;;;;;;5074591;28;20048;-45
2022/08/05 02:54:04;;;;;;;7.32;6.32;;;17.80;99.90;;;;;;5074515;28;20044;-45
2022/08/05 02:56:29;;;;;;;;;;;17.80;99.90;;;;;;5067819;28;20088;-46
2022/08/05 02:58:56;;;;;;;9.20;6.68;;;17.80;99.90;;;;;;5054702;28;19964;-46
2022/08/05 03:01:26;;;;;;;10.38;6.60;;;17.90;99.90;;;;;;5069958;28;20083;-46
2022/08/05 03:03:55;;;;;;;12.25;6.75;;;17.80;99.90;;;;;;5054426;28;20049;-44
2022/08/05 03:06:22;;;;;;;8.65;7.75;;;17.90;99.90;;;;;;5053449;28;20040;-45
2022/08/05 03:08:49;;;;;;;11.57;7.65;;;17.90;99.90;;;;;;5054474;28;20163;-46
2022/08/05 03:11:20;;;;;;;9.82;6.72;;;17.90;99.90;;;;;;5054578;28;20049;-45
2022/08/05 03:13:45;;;;;;;12.68;7.47;;;17.90;99.90;;;;;;5063187;28;20142;-45
2022/08/05 03:16:11;;;;;;;10.57;7.57;;;17.90;99.90;;;;;;5074256;28;20059;-46
2022/08/05 03:18:37;;;;;;;11.88;7.40;;;17.90;99.90;;;;;;5074051;28;20500;-44
2022/08/05 03:21:03;;;;;;;8.15;7.22;;;17.90;99.90;;;;;;5073790;28;20052;-46
2022/08/05 03:23:28;;;;;;;9.80;7.10;;;17.90;99.90;;;;;;5073772;28;20043;-45
2022/08/05 03:25:54;;;;;;;9.02;6.72;;;17.90;99.90;;;;;;5074194;28;20048;-48
2022/08/05 03:28:20;;;;;;;8.27;6.50;;;17.90;99.90;;;;;;5073995;28;20414;-45
2022/08/05 03:30:48;;;;;;;11.30;6.95;;;17.90;99.90;;;;;;5073920;28;20045;-45
2022/08/05 03:33:14;;;;;;;13.48;8.02;;;17.90;99.90;;;;;;5072551;28;20120;-46
2022/08/05 03:35:40;;;;;;;9.87;6.50;;;17.90;99.90;;;;;;5073821;28;20474;-45
2022/08/05 03:38:06;;;;;;;10.40;7.13;;;17.90;99.90;;;;;;5073516;28;20080;-46
2022/08/05 03:40:31;;;;;;;10.15;6.93;;;17.90;99.90;;;;;;5073312;28;20052;-46
2022/08/05 03:42:57;;;;;;;11.00;7.82;;;17.90;99.90;;;;;;5073495;28;20055;-46
2022/08/05 03:45:22;;;;;;;8.30;6.65;;;17.90;99.90;;;;;;5073596;28;20106;-48
2022/08/05 03:47:48;;;;;;;7.32;6.15;;;17.90;99.90;;;;;;5065305;28;20043;-48
2022/08/05 03:50:14;;;;;;;8.27;6.25;;;17.80;99.90;;;;;;5053392;28;20045;-48
2022/08/05 03:53:02;;;;;;;8.35;6.72;;;17.80;99.90;;;;;;5053416;28;20049;-45
2022/08/05 03:55:34;;;;;;;9.98;6.63;;;17.90;99.90;;;;;;5053533;28;20075;-47
2022/08/05 03:58:00;;;;;;;9.35;6.45;;;17.80;99.90;;;;;;5053433;28;20071;-50
2022/08/05 04:00:30;;;;;;;7.65;5.72;;;17.80;99.90;;;;;;5052441;28;20049;-47
2022/08/05 04:02:58;;;;;;;8.45;5.65;;;17.70;99.90;;;;;;5053218;28;20116;-46
2022/08/05 04:05:27;;;;;;;9.18;5.72;;;17.70;99.90;;;;;;5053407;28;20119;-45
2022/08/05 04:07:54;;;;;;;9.52;5.82;;;17.70;99.90;;;;;;5052002;28;20129;-45
2022/08/05 04:10:19;;;;;;;11.15;6.13;;;17.70;99.90;;;;;;5053501;28;20110;-45
2022/08/05 04:12:46;;;;;;;7.03;5.05;;;17.60;99.90;;;;;;5053299;28;20550;-46
2022/08/05 04:15:11;;;;;;;8.27;5.45;;;17.60;99.90;;;;;;5053221;28;20041;-46
2022/08/05 04:17:37;;;;;;;7.30;6.05;;;17.60;99.90;;;;;;5051762;28;20171;-45
2022/08/05 04:20:03;;;;;;;10.73;5.78;;;17.60;99.90;;;;;;5051735;28;20483;-50
2022/08/05 04:22:29;;;;;;;8.75;5.40;;;17.60;99.90;;;;;;5053033;28;20041;-46
2022/08/05 04:24:54;;;;;;;11.77;5.55;;;17.60;99.90;;;;;;5051940;28;20052;-48
2022/08/05 04:27:20;;;;;;;11.52;5.57;;;17.60;99.90;;;;;;5052959;28;20486;-48
2022/08/05 04:29:45;;;;;;;9.90;5.30;;;17.60;99.90;;;;;;5052771;28;20072;-48
2022/08/05 04:32:11;;;;;;;8.90;5.00;;;17.60;99.90;;;;;;5052748;28;20075;-47
2022/08/05 04:34:37;;;;;;;6.72;5.00;;;17.60;99.90;;;;;;5052750;28;20052;-47
2022/08/05 04:37:03;;;;;;;7.50;4.90;;;17.60;99.90;;;;;;5052874;28;20048;-46
2022/08/05 04:39:29;;;;;;;9.52;4.80;;;17.60;99.90;;;;;;5052652;28;20092;-45
2022/08/05 04:41:55;;;;;;;8.40;4.88;;;17.60;99.90;;;;;;5052778;28;20047;-46
2022/08/05 04:44:20;;;;;;;5.85;4.38;;;17.60;99.90;;;;;;5052712;28;20103;-47
2022/08/05 04:46:46;;;;;;;9.57;5.00;;;17.60;99.90;;;;;;5052859;28;20482;-46
2022/08/05 04:49:11;;;;;;;9.32;5.22;;;17.60;99.90;;;;;;5051739;28;20499;-46
2022/08/05 04:51:37;;;;;;;6.88;5.00;;;17.60;99.90;;;;;;5052741;28;20102;-45
2022/08/05 04:54:03;;;;;;;5.38;4.82;;;17.70;99.90;;;;;;5051589;28;20125;-46
2022/08/05 04:56:28;;;;;;;8.95;5.15;;;17.70;99.90;;;;;;5053154;28;20048;-51
2022/08/05 04:58:54;;;;;;;7.10;4.45;;;17.60;99.90;;;;;;5052581;28;20048;-46
2022/08/05 05:01:19;;;;;;;7.45;4.53;;;17.60;99.90;;;;;;5052346;28;20037;-48
2022/08/05 05:03:45;;;;;;;7.53;5.30;;;17.60;99.90;;;;;;5052779;28;20556;-47
2022/08/05 05:06:12;;;;;;;8.38;5.03;;;17.60;99.90;;;;;;5052746;28;20041;-45
2022/08/05 05:08:38;;;;;;;6.32;4.78;;;17.60;99.90;;;;;;5052584;28;20479;-45
2022/08/05 05:11:03;;;;;;;9.07;5.03;;;17.60;99.90;;;;;;5052648;28;20052;-46
2022/08/05 05:13:29;;;;;;;10.65;5.13;;;17.60;99.90;;;;;;5052622;28;20033;-46
2022/08/05 05:15:55;;;;;;;9.43;5.63;;;17.60;99.90;;;;;;5052388;28;20449;-52
2022/08/05 05:18:20;;;;;;;7.75;4.97;;;17.70;99.90;;;;;;5052671;28;20041;-47
2022/08/05 05:20:46;;;;;;;8.65;5.20;;;17.70;99.90;;;;;;5052495;28;20487;-47
2022/08/05 05:23:12;;;;;;;10.30;5.60;;;17.70;99.90;;;;;;5052380;28;20037;-51
2022/08/05 05:25:40;;;;;;;10.40;5.32;;;17.70;99.90;;;;;;5052360;28;20033;-50
2022/08/05 05:28:06;;;;;;;9.45;4.95;;;17.70;99.90;;;;;;5052926;28;20051;-46
2022/08/05 05:30:32;;;;;;;7.00;4.57;;;17.80;99.90;;;;;;5056093;28;20041;-48
2022/08/05 05:32:58;;;;;;;9.38;5.03;;;17.80;99.90;;;;;;5056223;28;20047;-46
2022/08/05 05:35:24;;;;;;;7.63;4.87;;;17.80;99.90;;;;;;5056102;28;20475;-47
2022/08/05 05:37:52;;;;;;;8.50;4.63;;;17.80;99.90;;;;;;5056037;28;20308;-51
2022/08/05 05:40:19;;;;;;;7.53;4.70;;;17.90;99.90;;;;;;5056196;28;20068;-48
2022/08/05 05:42:49;;;;;;;8.95;4.68;;;17.90;99.90;;;;;;5056443;28;20124;-48
2022/08/05 05:45:15;;;;;;;9.50;4.53;;;17.90;99.90;;;;;;5055714;28;20131;-48
2022/08/05 05:47:41;;;;;;;6.45;4.15;;;17.90;99.90;;;;;;5055726;28;20398;-48
2022/08/05 05:50:09;;;;;;;6.57;3.85;;;17.90;99.90;;;;;;5055991;28;20052;-50
2022/08/05 05:52:35;;;;;;;8.45;4.55;;;17.80;99.90;;;;;;5055776;28;20115;-47
2022/08/05 05:55:11;;;;;;;5.93;4.05;;;17.80;99.90;;;;;;5054281;28;20095;-51
2022/08/05 05:57:38;;;;;;;5.95;4.53;;;17.80;99.90;;;;;;5055822;28;20102;-48
2022/08/05 06:00:05;;;;;;;10.25;4.35;;;17.90;99.90;;;;;;5055731;28;20048;-50
2022/08/05 06:02:31;;;;;;;10.50;4.75;;;17.90;99.90;;;;;;5053379;28;20072;-47
2022/08/05 06:04:56;;;;;;;9.23;4.35;;;17.90;99.90;;;;;;5055533;28;20077;-46
2022/08/05 06:07:22;;;;;;;7.45;4.43;;;17.90;99.90;;;;;;5055337;28;20045;-46
2022/08/05 06:09:48;;;;;;;7.28;4.40;;;17.80;99.90;;;;;;5055293;28;20051;-46
2022/08/05 06:12:13;;;;;;;7.28;3.80;;;17.80;99.90;;;;;;5055158;28;20049;-47
2022/08/05 06:14:41;;;;;;;8.35;3.92;;;17.80;99.90;;;;;;5055517;28;20120;-49
2022/08/05 06:17:06;;;;;;;6.07;4.00;;;17.90;99.90;;;;;;5055473;28;20055;-45
2022/08/05 06:19:32;;;;;;;7.32;3.80;;;17.80;99.90;;;;;;5055250;28;20045;-48
2022/08/05 06:21:58;;;;;;;6.03;3.80;;;17.80;99.90;;;;;;5055209;28;20041;-45
2022/08/05 06:24:23;;;;;;;5.90;4.38;;;17.80;99.90;;;;;;5055068;28;20059;-48
2022/08/05 06:26:49;;;;;;;5.00;3.83;;;17.80;99.90;;;;;;5054996;28;20045;-45
2022/08/05 06:29:14;;;;;;;8.18;3.92;;;17.80;99.90;;;;;;5055259;28;20033;-46
2022/08/05 06:31:40;;;;;;;11.07;4.22;;;17.80;99.90;;;;;;5055031;28;20049;-47
2022/08/05 06:34:05;;;;;;;8.50;4.38;;;17.90;99.90;;;;;;5055348;28;20048;-48
2022/08/05 06:36:31;;;;;;;8.82;4.03;;;18.00;99.90;;;;;;5054780;28;20072;-45
2022/08/05 06:38:56;;;;;;;7.18;3.95;;;18.10;99.90;;;;;;5054508;28;20033;-47
2022/08/05 06:41:22;;;;;;;5.25;4.07;;;18.10;99.90;;;;;;5054747;28;20084;-46
2022/08/05 06:43:48;;;;;;;7.57;4.70;;;18.20;99.90;;;;;;5054922;28;20597;-51
2022/08/05 06:46:14;;;;;;;7.05;4.30;;;18.20;99.90;;;;;;5054885;28;20045;-46
2022/08/05 06:48:40;;;;;;;7.05;4.40;;;18.30;99.90;;;;;;5054718;28;20399;-48
2022/08/05 06:51:06;;;;;;;5.00;4.05;;;18.30;99.90;;;;;;5054717;28;20044;-51
2022/08/05 06:53:32;;;;;;;8.45;4.10;;;18.40;99.90;;;;;;5054689;28;20048;-47
2022/08/05 06:55:59;;;;;;;7.18;3.80;;;18.40;99.90;;;;;;5054436;28;20041;-45
2022/08/05 06:58:25;;;;;;;7.30;4.17;;;18.40;99.90;;;;;;5053236;28;20052;-44
2022/08/05 07:00:51;;;;;;;7.60;4.00;;;18.50;99.90;;;;;;5053620;28;20361;-45
2022/08/05 07:03:17;;;;;;;5.70;4.00;;;18.50;99.90;;;;;;5054477;28;20487;-47
2022/08/05 07:05:43;;;;;;;8.18;4.40;;;18.50;99.90;;;;;;5054469;28;20044;-45
2022/08/05 07:08:08;;;;;;;7.38;4.40;;;18.60;99.90;;;;;;5054562;28;20048;-45
2022/08/05 07:10:34;;;;;;;6.28;4.00;;;18.70;99.90;;;;;;5054113;28;20090;-48
2022/08/05 07:18:28;;;;;;;6.05;4.18;;;18.90;99.90;;;;;;5054332;28;20048;-46
2022/08/05 07:20:53;;;;;;;7.20;3.70;;;19.00;99.90;;;;;;5054000;28;20120;-46
2022/08/05 07:23:19;;;;;;;7.28;4.50;;;19.00;99.90;;;;;;5054082;28;20072;-46
2022/08/05 07:25:45;;;;;;;8.15;4.15;;;18.90;99.90;;;;;;5052973;28;20045;-46
2022/08/05 07:28:10;;;;;;;8.38;4.00;;;19.10;99.90;;;;;;5054124;28;20075;-46
2022/08/05 07:30:37;;;;;;;6.72;4.10;;;19.50;99.90;;;;;;5054015;28;20456;-45
2022/08/05 07:33:04;;;;;;;5.85;4.10;;;20.00;99.90;;;;;;5054172;28;20041;-46
2022/08/05 07:35:30;;;;;;;5.80;3.92;;;20.50;99.90;;;;;;5053758;28;20086;-45
2022/08/05 07:37:56;;;;;;;7.68;3.63;;;20.80;99.90;;;;;;5053899;28;20049;-46
2022/08/05 07:40:22;;;;;;;6.72;3.70;;;20.60;99.90;;;;;;5053835;28;20049;-47
2022/08/05 07:42:48;;;;;;;6.03;3.55;;;20.60;99.90;;;;;;5052395;28;20049;-45
2022/08/05 07:45:14;;;;;;;7.40;3.17;;;20.60;99.90;;;;;;5053679;28;20045;-46
2022/08/05 07:47:40;;;;;;;4.68;3.13;;;20.60;99.90;;;;;;5053843;28;20126;-46
2022/08/05 07:50:07;;;;;;;8.60;3.80;;;20.40;99.90;;;;;;5053700;28;20072;-45
2022/08/05 07:52:40;;;;;;;4.35;3.38;;;20.70;99.90;;;;;;5053318;28;20041;-46
2022/08/05 07:55:07;;;;;;;6.25;3.35;;;21.40;99.90;;;;;;5051624;28;20664;-45
2022/08/05 07:57:32;;;;;;;5.60;2.80;;;21.40;99.90;;;;;;5053541;28;20153;-45
2022/08/05 07:59:58;;;;;;;8.68;3.38;;;21.30;99.90;;;;;;5053558;28;20510;-49
2022/08/05 08:02:27;;;;;;;4.50;2.88;;;21.70;99.90;;;;;;5053206;28;20124;-46
2022/08/05 08:04:53;;;;;;;4.50;2.83;;;21.50;99.90;;;;;;5053399;28;20045;-45
2022/08/05 08:07:19;;;;;;;4.95;2.60;;;21.40;99.90;;;;;;5053404;28;20485;-52
2022/08/05 08:09:45;;;;;;;4.25;1.98;;;21.90;99.90;;;;;;5053431;28;20116;-46
2022/08/05 08:12:14;;;;;;;5.63;2.35;;;21.20;99.90;;;;;;5053194;28;20053;-45
2022/08/05 08:14:41;;;;;;;5.82;2.88;;;20.80;99.90;;;;;;5053180;28;20037;-45
2022/08/05 08:17:09;;;;;;;5.38;1.95;;;20.70;99.90;;;;;;5052004;28;20037;-46
2022/08/05 08:19:39;;;;;;;4.32;1.70;;;20.60;99.90;;;;;;5053193;28;20041;-47
2022/08/05 08:22:06;;;;;;;2.53;1.80;;;20.70;99.90;;;;;;5053013;28;20410;-45
2022/08/05 08:24:32;;;;;;;4.28;1.60;;;20.80;99.90;;;;;;5053207;28;20080;-46
2022/08/05 08:26:58;;;;;;;4.45;1.60;;;20.90;99.90;;;;;;5053170;28;20540;-46
2022/08/05 08:29:23;;;;;;;4.68;1.73;;;21.10;99.90;;;;;;5034982;28;20044;-46
2022/08/05 08:31:50;;;;;;;2.72;1.35;;;21.20;99.90;;;;;;5052821;28;20045;-46
2022/08/05 08:34:17;;;;;;;3.13;1.20;;;21.40;99.90;;;;;;5053050;28;20088;-45
2022/08/05 08:36:43;;;;;;;4.07;1.63;;;21.70;99.90;;;;;;5052979;28;20041;-45
2022/08/05 08:39:09;;;;;;;2.92;1.30;;;21.40;99.90;;;;;;5052706;28;20044;-45
2022/08/05 08:41:39;;;;;;;3.65;1.17;;;21.80;99.90;;;;;;5053280;28;20053;-46
2022/08/05 08:44:07;;;;;;;3.63;1.38;;;21.80;99.90;;;;;;5052763;28;20037;-46
2022/08/05 08:46:33;;;;;;;;;;;22.00;99.90;;;;;;5053398;28;20174;-45
2022/08/05 08:49:02;;;;;;;3.83;1.13;;;22.30;99.90;;;;;;5052891;28;19955;-46
2022/08/05 08:51:32;;;;;;;4.65;1.45;;;22.20;99.90;;;;;;5052821;28;20392;-46
2022/08/05 08:53:58;;;;;;;3.22;1.50;;;22.50;99.90;;;;;;5052750;28;20052;-46
2022/08/05 08:56:24;;;;;;;4.43;1.50;;;22.30;99.90;;;;;;5052853;28;20045;-45
2022/08/05 08:58:50;;;;;;;2.85;1.30;;;22.10;99.90;;;;;;5052557;28;20041;-45
2022/08/05 09:01:17;;;;;;;2.53;1.40;;;22.30;99.90;;;;;;5052584;28;20041;-47
2022/08/05 09:03:47;;;;;;;2.90;1.33;;;22.00;99.90;;;;;;5054284;28;20037;-45
2022/08/05 09:06:13;;;;;;;2.33;1.30;;;22.20;99.90;;;;;;5056721;28;20080;-46
2022/08/05 09:08:39;;;;;;;3.53;1.38;;;21.90;99.90;;;;;;5056638;28;20072;-46
2022/08/05 09:11:06;;;;;;;3.60;1.63;;;21.80;99.90;;;;;;5056587;28;20414;-46
2022/08/05 09:13:33;;;;;;;1.95;1.50;;;21.80;99.90;;;;;;5056561;28;20445;-47
2022/08/05 09:15:58;;;;;;;6.25;1.80;;;22.00;99.90;;;;;;5056504;28;20040;-49
2022/08/05 09:18:24;;;;;;;4.70;1.63;;;21.50;99.90;;;;;;5056576;28;20041;-47
2022/08/05 09:20:50;;;;;;;3.17;2.03;;;21.60;99.90;;;;;;5056459;28;20041;-45
2022/08/05 09:23:19;;;;;;;2.45;1.60;;;21.80;99.90;;;;;;5056618;28;20045;-46
2022/08/05 09:25:49;;;;;;;3.90;1.50;;;22.40;99.90;;;;;;5055287;28;20041;-47
2022/08/05 09:28:22;;;;;;;3.17;1.73;;;22.70;99.90;;;;;;5056483;28;20174;-46
2022/08/05 09:31:08;;;;;;;2.90;1.02;;;22.80;99.90;;;;;;5056083;28;20442;-47
2022/08/05 09:33:52;;;;;;;5.65;1.33;;;22.80;99.90;;;;;;5056305;28;20041;-45
2022/08/05 09:36:18;;;;;;;2.03;0.85;;;23.00;99.90;;;;;;5056052;28;20041;-45
2022/08/05 09:39:06;;;;;;;1.02;0.73;;;23.30;99.90;;;;;;5056201;28;20040;-45
2022/08/05 09:41:31;;;;;;;1.80;0.70;;;23.60;99.90;;;;;;5055852;28;20061;-47
2022/08/05 09:43:57;;;;;;;1.15;0.70;;;23.80;99.90;;;;;;5055962;28;20055;-46
2022/08/05 09:46:30;;;;;;;2.45;0.80;;;24.00;99.90;;;;;;5056098;28;20124;-47
2022/08/05 09:48:57;;;;;;;1.85;0.80;;;24.10;99.90;;;;;;5055801;28;20049;-47
2022/08/05 09:51:36;;;;;;;2.85;1.30;;;24.20;99.90;;;;;;5055753;28;20106;-48
2022/08/05 09:54:06;;;;;;;1.10;0.70;;;24.30;99.90;;;;;;5056046;28;20055;-49
2022/08/05 09:56:32;;;;;;;0.98;0.77;;;24.50;99.90;;;;;;5054792;28;20037;-48
2022/08/05 09:59:05;;;;;;;2.27;0.70;;;24.60;99.90;;;;;;5055675;28;20048;-48
2022/08/05 10:01:33;;;;;;;1.38;0.75;;;24.70;99.90;;;;;;5055802;28;20287;-49
2022/08/05 10:03:59;;;;;;;;;;;24.60;99.90;;;;;;5055921;28;20499;-48
2022/08/05 10:06:28;;;;;;;1.67;0.90;;;24.50;99.90;;;;;;5054559;28;19975;-49
2022/08/05 10:08:55;;;;;;;1.40;0.60;;;24.40;99.90;;;;;;5055542;28;20122;-48
2022/08/05 10:11:21;;;;;;;0.68;0.52;;;24.30;99.90;;;;;;5055496;28;20049;-50
2022/08/05 10:13:47;;;;;;;2.15;0.70;;;24.20;99.90;;;;;;5054848;28;20094;-49
2022/08/05 10:16:32;;;;;;;1.90;0.68;;;24.20;99.90;;;;;;5055452;28;20041;-48
2022/08/05 10:18:59;;;;;;;1.63;0.50;;;24.00;98.80;;;;;;5054642;28;20099;-49
2022/08/05 10:21:24;;;;;;;1.77;0.63;;;24.40;99.60;;;;;;5055391;28;20037;-48
2022/08/05 10:23:50;;;;;;;2.25;0.57;;;24.50;97.70;;;;;;5055282;28;20509;-48
2022/08/05 10:26:16;;;;;;;2.45;0.80;;;24.40;97.20;;;;;;5053003;28;20045;-45
2022/08/05 10:28:43;;;;;;;1.48;0.60;;;24.20;96.70;;;;;;5055276;28;20091;-46
2022/08/05 10:31:10;;;;;;;;;;;24.40;97.20;;;;;;5055659;28;20489;-46
2022/08/05 10:33:36;;;;;;;1.83;1.08;;;24.20;96.60;;;;;;5055206;28;19928;-46
2022/08/05 10:36:03;;;;;;;1.48;0.50;;;23.60;96.20;;;;;;5037439;28;20048;-46
2022/08/05 10:38:31;;;;;;;1.20;0.68;;;23.70;95.80;;;;;;5054879;28;20116;-46
2022/08/05 10:41:26;;;;;;;1.33;0.50;;;24.00;96.90;;;;;;5054590;28;20057;-48
2022/08/05 10:44:08;;;;;;;1.50;1.00;;;24.10;96.50;;;;;;5055097;28;20045;-46
2022/08/05 10:46:47;;;;;;;1.02;0.40;;;24.20;95.90;;;;;;5055387;28;20045;-49
2022/08/05 10:49:13;;;;;;;1.08;0.63;;;23.40;93.40;;;;;;5054734;28;20040;-48
2022/08/05 10:51:55;;;;;;;0.95;0.50;;;23.70;94.20;;;;;;5055003;28;20049;-49
2022/08/05 10:54:21;;;;;;;1.00;0.50;;;23.80;93.50;;;;;;5054654;28;20048;-47
2022/08/05 10:56:49;;;;;;;1.20;0.40;;;23.90;92.60;;;;;;5054637;28;20131;-45
2022/08/05 10:59:24;;;;;;;2.08;0.50;;;23.90;92.50;;;;;;5052438;28;20045;-46
2022/08/05 11:02:13;;;;;;;1.48;0.50;;;23.80;91.80;;;;;;5054433;28;20045;-46
2022/08/05 11:04:46;;;;;;;2.20;0.47;;;24.00;92.80;;;;;;5054693;28;20048;-49
2022/08/05 11:07:17;;;;;;;0.95;0.50;;;24.00;92.40;;;;;;5053264;28;20041;-46
2022/08/05 11:09:46;;;;;;;3.88;0.45;;;;;;;;;;5054455;28;20052;-46
2022/08/05 11:12:33;;;;;;;1.02;0.52;;;23.90;92.00;;;;;;5054338;28;20113;-47
2022/08/05 11:15:07;;;;;;;1.15;0.60;;;24.00;91.70;;;;;;5054355;28;20093;-46
2022/08/05 11:17:37;;;;;;;4.57;0.63;;;24.10;92.40;;;;;;5054333;28;20033;-47
2022/08/05 11:20:27;;;;;;;1.38;0.60;;;24.20;92.20;;;;;;5054744;28;20075;-49
2022/08/05 11:22:52;;;;;;;2.97;0.60;;;24.20;90.00;;;;;;5054142;28;20124;-48
2022/08/05 11:25:32;;;;;;;3.70;0.60;;;24.10;90.40;;;;;;5053882;28;20452;-46
2022/08/05 11:28:13;;;;;;;2.28;0.50;;;24.30;90.60;;;;;;5053787;28;20124;-45
2022/08/05 11:30:57;;;;;;;1.52;0.40;;;24.30;90.30;;;;;;5054374;28;20049;-46
2022/08/05 11:33:32;;;;;;;2.70;0.40;;;23.80;90.20;;;;;;5054280;28;20130;-48
2022/08/05 11:36:00;;;;;;;1.10;0.40;;;23.70;90.30;;;;;;5054024;28;20128;-50
2022/08/05 11:38:37;;;;;;;1.15;0.40;;;23.80;89.20;;;;;;5052845;28;20044;-49
2022/08/05 11:41:14;;;;;;;2.08;0.50;;;23.90;86.10;;;;;;5053506;28;20057;-49
2022/08/05 11:43:52;;;;;;;1.15;0.55;;;24.00;84.70;;;;;;5053582;28;20051;-47
2022/08/05 11:46:27;;;;;;;1.80;0.40;;;24.10;81.70;;;;;;5053759;28;20045;-46
2022/08/05 11:48:54;;;;;;;2.05;0.40;;;24.10;78.20;;;;;;5053638;28;20041;-46
2022/08/05 11:51:21;;;;;;;1.55;0.40;;;24.10;77.80;;;;;;5054111;28;20378;-46
2022/08/05 11:53:47;;;;;;;4.50;0.50;;;24.20;76.00;;;;;;5053431;28;20086;-46
2022/08/05 11:56:13;;;;;;;0.70;0.50;;;24.10;78.00;;;;;;5053649;28;20037;-47
2022/08/05 11:58:44;;;;;;;0.70;0.30;;;24.00;76.90;;;;;;5053562;28;20045;-49
2022/08/05 12:01:13;;;;;;;0.93;0.40;;;23.80;76.10;;;;;;5052347;28;20103;-49
2022/08/05 12:03:42;;;;;;;1.45;0.50;;;24.10;76.50;;;;;;5053226;28;20506;-47
2022/08/05 12:06:09;;;;;;;1.17;0.40;;;24.20;75.60;;;;;;5053378;28;20110;-45
2022/08/05 12:08:46;;;;;;;0.90;0.40;;;24.10;77.20;;;;;;5053258;28;20502;-48
2022/08/05 12:11:19;;;;;;;2.10;0.50;;;24.50;74.70;;;;;;5053371;28;20045;-46
2022/08/05 12:13:54;;;;;;;0.55;0.30;;;24.50;74.70;;;;;;5053274;28;20045;-46
2022/08/05 12:16:21;;;;;;;1.88;0.30;;;24.30;74.50;;;;;;5053418;28;20044;-49
2022/08/05 12:18:46;;;;;;;0.98;0.40;;;24.20;73.20;;;;;;5053037;28;20041;-45
2022/08/05 12:21:19;;;;;;;1.42;0.50;;;24.00;73.90;;;;;;5053186;28;20041;-46
2022/08/05 12:24:06;;;;;;;0.80;0.30;;;24.10;72.70;;;;;;5053212;28;20052;-48
2022/08/05 12:26:35;;;;;;;3.10;0.50;;;23.90;73.00;;;;;;5053232;28;20041;-47
2022/08/05 12:29:16;;;;;;;0.60;0.30;;;23.70;73.10;;;;;;5052979;28;20127;-49
2022/08/05 12:31:56;;;;;;;1.65;0.30;;;23.50;73.60;;;;;;5053183;28;20049;-49
2022/08/05 12:34:28;;;;;;;2.72;0.57;;;23.80;74.40;;;;;;5052929;28;20037;-48
2022/08/05 12:36:55;;;;;;;1.17;0.30;;;24.30;75.40;;;;;;5051426;28;20495;-47
2022/08/05 12:39:25;;;;;;;0.57;0.20;;;23.90;74.30;;;;;;5052658;28;20398;-47
2022/08/05 12:41:58;;;;;;;2.67;0.60;;;23.70;74.10;;;;;;5052884;28;20403;-46
2022/08/05 12:44:24;;;;;;;1.40;0.30;;;23.60;75.40;;;;;;5052944;28;20051;-46
2022/08/05 12:46:54;;;;;;;2.15;0.45;;;24.00;75.60;;;;;;5052866;28;20037;-46
2022/08/05 12:49:21;;;;;;;2.03;0.40;;;24.20;74.70;;;;;;5052743;28;20040;-49
2022/08/05 12:51:48;;;;;;;1.17;0.40;;;24.40;74.40;;;;;;5052724;28;20048;-50
2022/08/05 12:54:29;;;;;;;2.55;0.52;;;24.40;76.50;;;;;;5052660;28;20040;-45
2022/08/05 12:56:56;;;;;;;1.88;0.40;;;25.00;76.10;;;;;;5052548;28;20491;-47
2022/08/05 12:59:25;;;;;;;1.85;0.40;;;25.20;76.60;;;;;;5052629;28;20052;-46
2022/08/05 13:02:06;;;;;;;0.85;0.30;;;25.20;75.20;;;;;;5052516;28;20116;-47
2022/08/05 13:04:33;;;;;;;1.20;0.32;;;24.20;76.60;;;;;;5052486;28;20036;-45